KPOE/POE METAR and TAF weather

Enter ICAO airport designator
Station Type Date Time Source
KPOE METAR 2022/01/19 20:20 UTC NOAA

KPOE 192020Z AUTO 17009KT 7SM RA SCT033 BKN070 BKN130 22/16 A2990 RMK AO2 LTG DSNT S-NW RAB20 SLP126


Station Type Date Time Source
KPOE Decoded METAR 2022/01/19 20:20 UTC NOAA

Fort Polk, Polk AAF Ft Polk, LA, United States (KPOE) 31-03N 093-11-38W
Jan 19, 2022 - 03:20 PM EST / 2022.01.19 2020 UTC
Wind: from the S (170 degrees) at 10 MPH (9 KT):0
Visibility: 7 mile(s):0
Sky conditions: mostly cloudy
Weather: rain; Lightning observed
Temperature: 71 F (22 C)
Dew Point: 60 F (16 C)
Relative Humidity: 68%
Pressure (altimeter): 29.9 in. Hg (1012 hPa)
ob: KPOE 192020Z AUTO 17009KT 7SM RA SCT033 BKN070 BKN130 22/16 A2990 RMK AO2 LTG DSNT S-NW RAB20 SLP126
cycle: 20

Station Type Date Time Source
KPOE TAF 2022/01/19 19:48 UTC NOAA

TAF
AMD KPOE 191921Z 1919/2022 20012G18KT 9999 VCTS BKN030CB QNH2993INS
TEMPO 1919/1924 VRB15G25KT 4800 -TSRA BKN025CB
BECMG 2000/2001 21012G18KT 8000 -SHRA BKN015 QNH2993INS
TEMPO 2001/2007 24020G30KT 4800 -TSRA OVC010CB
BECMG 2007/2008 34020G25KT 9999 NSW BKN015 QNH3013INS
BECMG 2012/2013 01020G25KT 9999 SCT012 OVC020 QNH3021INS TX24/1920Z TN03/2015Z

Example: see airport list